sensor_id;sensor_type;location;lat;lon;timestamp;pressure;altitude;pressure_sealevel;temperature;humidity
51926;BME280;37952;51.938;15.480;2023-02-28T00:01:22;101214.73;;;1.52;59.14
51926;BME280;37952;51.938;15.480;2023-02-28T00:04:49;101219.61;;;1.51;59.04
51926;BME280;37952;51.938;15.480;2023-02-28T00:08:29;101217.88;;;1.48;59.07
51926;BME280;37952;51.938;15.480;2023-02-28T00:12:12;101219.27;;;1.45;58.80
51926;BME280;37952;51.938;15.480;2023-02-28T00:15:58;101220.64;;;1.43;57.88
51926;BME280;37952;51.938;15.480;2023-02-28T00:23:07;101218.22;;;1.45;58.62
51926;BME280;37952;51.938;15.480;2023-02-28T00:37:45;101218.56;;;1.51;58.33
51926;BME280;37952;51.938;15.480;2023-02-28T00:41:31;101223.42;;;1.52;58.35
51926;BME280;37952;51.938;15.480;2023-02-28T00:44:41;101221.00;;;1.51;58.41
51926;BME280;37952;51.938;15.480;2023-02-28T00:48:04;101222.90;;;1.53;58.42
51926;BME280;37952;51.938;15.480;2023-02-28T00:51:10;101223.96;;;1.55;58.31
51926;BME280;37952;51.938;15.480;2023-02-28T01:01:44;101215.60;;;1.55;58.48
51926;BME280;37952;51.938;15.480;2023-02-28T01:04:50;101214.39;;;1.54;58.55
51926;BME280;37952;51.938;15.480;2023-02-28T01:11:37;101218.92;;;1.47;58.97
51926;BME280;37952;51.938;15.480;2023-02-28T01:26:11;101218.55;;;1.31;59.17
51926;BME280;37952;51.938;15.480;2023-02-28T01:29:46;101215.25;;;1.30;59.48
51926;BME280;37952;51.938;15.480;2023-02-28T01:32:48;101214.56;;;1.34;59.59
51926;BME280;37952;51.938;15.480;2023-02-28T01:36:22;101218.20;;;1.36;59.72
51926;BME280;37952;51.938;15.480;2023-02-28T01:39:54;101217.86;;;1.38;59.68
51926;BME280;37952;51.938;15.480;2023-02-28T01:43:16;101215.08;;;1.40;59.90
51926;BME280;37952;51.938;15.480;2023-02-28T01:51:41;101204.83;;;1.35;60.01
51926;BME280;37952;51.938;15.480;2023-02-28T01:54:54;101206.23;;;1.40;60.13
51926;BME280;37952;51.938;15.480;2023-02-28T01:58:10;101208.13;;;1.41;60.05
51926;BME280;37952;51.938;15.480;2023-02-28T02:01:17;101205.52;;;1.41;60.05
51926;BME280;37952;51.938;15.480;2023-02-28T02:08:13;101192.49;;;1.43;60.20
51926;BME280;37952;51.938;15.480;2023-02-28T02:11:19;101194.40;;;1.42;60.29
51926;BME280;37952;51.938;15.480;2023-02-28T02:14:38;101192.49;;;1.42;60.17
51926;BME280;37952;51.938;15.480;2023-02-28T02:17:46;101189.20;;;1.41;60.34
51926;BME280;37952;51.938;15.480;2023-02-28T02:36:45;101180.50;;;1.29;60.63
51926;BME280;37952;51.938;15.480;2023-02-28T02:45:42;101183.27;;;1.11;60.72
51926;BME280;37952;51.938;15.480;2023-02-28T02:48:21;101185.16;;;1.04;60.76
51926;BME280;37952;51.938;15.480;2023-02-28T02:51:38;101187.06;;;0.98;60.78
51926;BME280;37952;51.938;15.480;2023-02-28T02:55:00;101184.80;;;0.95;60.96
51926;BME280;37952;51.938;15.480;2023-02-28T03:02:59;101191.52;;;0.78;61.10
51926;BME280;37952;51.938;15.480;2023-02-28T03:06:34;101194.64;;;0.77;61.26
51926;BME280;37952;51.938;15.480;2023-02-28T03:09:58;101194.29;;;0.76;61.51
51926;BME280;37952;51.938;15.480;2023-02-28T03:18:25;101198.23;;;0.66;61.65
51926;BME280;37952;51.938;15.480;2023-02-28T03:21:42;101196.82;;;0.55;61.74
51926;BME280;37952;51.938;15.480;2023-02-28T03:28:34;101198.19;;;0.52;62.04
51926;BME280;37952;51.938;15.480;2023-02-28T03:32:00;101196.80;;;0.50;61.94
51926;BME280;37952;51.938;15.480;2023-02-28T03:39:55;101201.27;;;0.41;62.19
51926;BME280;37952;51.938;15.480;2023-02-28T03:43:09;101202.83;;;0.42;62.14
51926;BME280;37952;51.938;15.480;2023-02-28T03:46:34;101201.98;;;0.46;62.21
51926;BME280;37952;51.938;15.480;2023-02-28T03:58:20;101212.40;;;0.47;62.19
51926;BME280;37952;51.938;15.480;2023-02-28T04:01:44;101214.66;;;0.47;62.40
51926;BME280;37952;51.938;15.480;2023-02-28T04:04:48;101221.06;;;0.45;62.40
51926;BME280;37952;51.938;15.480;2023-02-28T04:08:03;101219.48;;;0.40;62.36
51926;BME280;37952;51.938;15.480;2023-02-28T04:11:25;101217.73;;;0.38;62.37
51926;BME280;37952;51.938;15.480;2023-02-28T04:18:56;101218.02;;;0.31;62.32
51926;BME280;37952;51.938;15.480;2023-02-28T04:22:26;101222.04;;;0.31;62.28
51926;BME280;37952;51.938;15.480;2023-02-28T04:25:46;101227.59;;;0.34;62.64
51926;BME280;37952;51.938;15.480;2023-02-28T04:33:44;101220.45;;;0.29;62.36
51926;BME280;37952;51.938;15.480;2023-02-28T04:37:10;101221.86;;;0.31;62.50
51926;BME280;37952;51.938;15.480;2023-02-28T04:40:21;101223.41;;;0.30;62.43
51926;BME280;37952;51.938;15.480;2023-02-28T04:43:24;101224.42;;;0.25;62.58
51926;BME280;37952;51.938;15.480;2023-02-28T04:46:28;101228.05;;;0.22;62.41
51926;BME280;37952;51.938;15.480;2023-02-28T04:49:42;101228.90;;;0.19;62.55
51926;BME280;37952;51.938;15.480;2023-02-28T04:52:48;101226.45;;;0.17;62.88
51926;BME280;37952;51.938;15.480;2023-02-28T04:55:51;101233.36;;;0.13;62.66
51926;BME280;37952;51.938;15.480;2023-02-28T05:07:23;101239.38;;;0.04;63.14
51926;BME280;37952;51.938;15.480;2023-02-28T05:10:26;101245.78;;;0.02;63.37
51926;BME280;37952;51.938;15.480;2023-02-28T05:13:29;101243.70;;;0.01;63.62
51926;BME280;37952;51.938;15.480;2023-02-28T05:16:32;101253.76;;;0.04;63.55
51926;BME280;37952;51.938;15.480;2023-02-28T05:19:36;101255.16;;;0.05;63.69
51926;BME280;37952;51.938;15.480;2023-02-28T05:22:40;101258.44;;;0.03;63.84
51926;BME280;37952;51.938;15.480;2023-02-28T05:25:43;101254.62;;;0.01;63.67
51926;BME280;37952;51.938;15.480;2023-02-28T05:28:46;101253.56;;;-0.01;63.84
51926;BME280;37952;51.938;15.480;2023-02-28T05:31:49;101260.32;;;-0.01;64.15
51926;BME280;37952;51.938;15.480;2023-02-28T05:34:53;101257.89;;;-0.01;63.95
51926;BME280;37952;51.938;15.480;2023-02-28T05:37:55;101259.10;;;-0.01;64.08
51926;BME280;37952;51.938;15.480;2023-02-28T05:40:58;101267.24;;;-0.03;64.34
51926;BME280;37952;51.938;15.480;2023-02-28T05:44:01;101266.01;;;-0.06;64.40
51926;BME280;37952;51.938;15.480;2023-02-28T05:47:04;101268.75;;;-0.09;64.42
51926;BME280;37952;51.938;15.480;2023-02-28T05:50:07;101271.31;;;-0.13;64.66
51926;BME280;37952;51.938;15.480;2023-02-28T05:53:12;101275.81;;;-0.15;64.73
51926;BME280;37952;51.938;15.480;2023-02-28T05:56:15;101278.77;;;-0.13;64.96
51926;BME280;37952;51.938;15.480;2023-02-28T05:59:18;101282.60;;;-0.12;65.23
51926;BME280;37952;51.938;15.480;2023-02-28T06:02:20;101282.61;;;-0.10;64.96
51926;BME280;37952;51.938;15.480;2023-02-28T06:05:23;101281.92;;;-0.09;65.08
51926;BME280;37952;51.938;15.480;2023-02-28T06:08:27;101283.16;;;-0.05;65.08
51926;BME280;37952;51.938;15.480;2023-02-28T06:11:30;101279.36;;;-0.04;64.91
51926;BME280;37952;51.938;15.480;2023-02-28T06:14:34;101285.09;;;-0.03;65.06
51926;BME280;37952;51.938;15.480;2023-02-28T06:17:37;101287.89;;;-0.02;65.13
51926;BME280;37952;51.938;15.480;2023-02-28T06:20:40;101290.64;;;-0.03;65.09
51926;BME280;37952;51.938;15.480;2023-02-28T06:23:43;101289.56;;;-0.06;65.13
51926;BME280;37952;51.938;15.480;2023-02-28T06:26:46;101293.39;;;-0.06;65.08
51926;BME280;37952;51.938;15.480;2023-02-28T06:29:54;101295.95;;;-0.10;65.04
51926;BME280;37952;51.938;15.480;2023-02-28T06:32:58;101295.46;;;-0.06;65.17
51926;BME280;37952;51.938;15.480;2023-02-28T06:36:01;101296.17;;;-0.04;65.23
51926;BME280;37952;51.938;15.480;2023-02-28T06:39:04;101297.90;;;-0.04;65.50
51926;BME280;37952;51.938;15.480;2023-02-28T06:42:07;101295.16;;;-0.02;65.29
51926;BME280;37952;51.938;15.480;2023-02-28T06:45:11;101299.35;;;0.03;65.24
51926;BME280;37952;51.938;15.480;2023-02-28T06:48:14;101300.77;;;0.07;65.38
51926;BME280;37952;51.938;15.480;2023-02-28T06:51:19;101303.03;;;0.10;65.34
51926;BME280;37952;51.938;15.480;2023-02-28T06:54:25;101296.62;;;0.07;65.39
51926;BME280;37952;51.938;15.480;2023-02-28T06:57:32;101312.30;;;0.18;65.81
51926;BME280;37952;51.938;15.480;2023-02-28T07:00:35;101312.17;;;0.24;65.72
51926;BME280;37952;51.938;15.480;2023-02-28T07:03:38;101308.73;;;0.28;65.58
51926;BME280;37952;51.938;15.480;2023-02-28T07:06:42;101311.15;;;0.28;65.53
51926;BME280;37952;51.938;15.480;2023-02-28T07:09:46;101307.86;;;0.29;65.61
51926;BME280;37952;51.938;15.480;2023-02-28T07:12:49;101309.11;;;0.33;65.54
51926;BME280;37952;51.938;15.480;2023-02-28T07:15:59;101308.97;;;0.38;65.60
51926;BME280;37952;51.938;15.480;2023-02-28T07:19:03;101312.27;;;0.39;65.57
51926;BME280;37952;51.938;15.480;2023-02-28T07:22:06;101314.52;;;0.39;65.42
51926;BME280;37952;51.938;15.480;2023-02-28T07:25:32;101316.42;;;0.38;65.36
51926;BME280;37952;51.938;15.480;2023-02-28T07:28:35;101315.02;;;0.37;65.52
51926;BME280;37952;51.938;15.480;2023-02-28T07:31:39;101319.75;;;0.41;65.45
51926;BME280;37952;51.938;15.480;2023-02-28T07:34:43;101321.85;;;0.44;65.45
51926;BME280;37952;51.938;15.480;2023-02-28T07:37:46;101329.14;;;0.46;65.40
51926;BME280;37952;51.938;15.480;2023-02-28T07:40:49;101330.17;;;0.45;65.45
51926;BME280;37952;51.938;15.480;2023-02-28T07:43:55;101334.17;;;0.47;65.56
51926;BME280;37952;51.938;15.480;2023-02-28T07:46:59;101335.06;;;0.49;65.49
51926;BME280;37952;51.938;15.480;2023-02-28T07:50:03;101335.78;;;0.52;65.54
51926;BME280;37952;51.938;15.480;2023-02-28T07:53:06;101331.27;;;0.54;65.81
51926;BME280;37952;51.938;15.480;2023-02-28T07:56:09;101333.76;;;0.62;65.94
51926;BME280;37952;51.938;15.480;2023-02-28T07:59:13;101330.48;;;0.67;65.87
51926;BME280;37952;51.938;15.480;2023-02-28T08:02:17;101326.84;;;0.66;65.96
51926;BME280;37952;51.938;15.480;2023-02-28T08:05:21;101328.09;;;0.76;65.61
51926;BME280;37952;51.938;15.480;2023-02-28T08:08:25;101328.83;;;0.81;65.67
51926;BME280;37952;51.938;15.480;2023-02-28T08:11:31;101329.89;;;0.85;65.51
51926;BME280;37952;51.938;15.480;2023-02-28T08:14:35;101325.23;;;0.88;65.46
51926;BME280;37952;51.938;15.480;2023-02-28T08:17:46;101326.96;;;0.92;65.46
51926;BME280;37952;51.938;15.480;2023-02-28T08:20:50;101323.16;;;0.96;65.43
51926;BME280;37952;51.938;15.480;2023-02-28T08:23:58;101326.84;;;1.02;65.11
51926;BME280;37952;51.938;15.480;2023-02-28T08:27:01;101322.86;;;1.04;64.88
51926;BME280;37952;51.938;15.480;2023-02-28T08:30:05;101329.64;;;1.06;64.72
51926;BME280;37952;51.938;15.480;2023-02-28T08:33:08;101323.57;;;1.09;64.46
51926;BME280;37952;51.938;15.480;2023-02-28T08:36:12;101329.13;;;1.13;64.24
51926;BME280;37952;51.938;15.480;2023-02-28T08:39:15;101328.80;;;1.16;64.14
51926;BME280;37952;51.938;15.480;2023-02-28T08:42:18;101326.56;;;1.21;63.89
51926;BME280;37952;51.938;15.480;2023-02-28T08:45:23;101325.35;;;1.22;61.82
51926;BME280;37952;51.938;15.480;2023-02-28T08:48:27;101324.67;;;1.24;62.56
51926;BME280;37952;51.938;15.480;2023-02-28T08:51:31;101329.02;;;1.28;62.86
51926;BME280;37952;51.938;15.480;2023-02-28T08:54:35;101332.85;;;1.32;62.98
51926;BME280;37952;51.938;15.480;2023-02-28T08:57:38;101334.44;;;1.34;62.84
51926;BME280;37952;51.938;15.480;2023-02-28T09:00:59;101334.09;;;1.37;62.89
51926;BME280;37952;51.938;15.480;2023-02-28T09:04:02;101334.27;;;1.42;62.69
51926;BME280;37952;51.938;15.480;2023-02-28T09:07:05;101337.94;;;1.45;62.53
51926;BME280;37952;51.938;15.480;2023-02-28T09:10:09;101339.50;;;1.46;61.98
51926;BME280;37952;51.938;15.480;2023-02-28T09:13:12;101338.81;;;1.47;62.21
51926;BME280;37952;51.938;15.480;2023-02-28T09:16:16;101339.50;;;1.52;61.95
51926;BME280;37952;51.938;15.480;2023-02-28T09:19:19;101339.34;;;1.56;61.99
51926;BME280;37952;51.938;15.480;2023-02-28T09:22:22;101341.79;;;1.60;61.19
51926;BME280;37952;51.938;15.480;2023-02-28T09:25:25;101336.75;;;1.60;60.93
51926;BME280;37952;51.938;15.480;2023-02-28T09:32:02;101335.89;;;1.58;60.76
51926;BME280;37952;51.938;15.480;2023-02-28T09:35:06;101335.02;;;1.56;60.72
51926;BME280;37952;51.938;15.480;2023-02-28T09:38:10;101331.35;;;1.59;60.63
51926;BME280;37952;51.938;15.480;2023-02-28T09:41:16;101328.60;;;1.63;60.74
51926;BME280;37952;51.938;15.480;2023-02-28T09:44:33;101324.08;;;1.69;60.18
51926;BME280;37952;51.938;15.480;2023-02-28T09:47:42;101326.34;;;1.73;60.31
51926;BME280;37952;51.938;15.480;2023-02-28T09:51:04;101322.02;;;1.79;60.52
51926;BME280;37952;51.938;15.480;2023-02-28T09:54:17;101329.15;;;1.87;60.57
51926;BME280;37952;51.938;15.480;2023-02-28T09:57:29;101333.84;;;1.91;60.06
51926;BME280;37952;51.938;15.480;2023-02-28T10:00:39;101328.27;;;1.96;59.58
51926;BME280;37952;51.938;15.480;2023-02-28T10:03:47;101329.14;;;2.04;59.57
51926;BME280;37952;51.938;15.480;2023-02-28T10:06:53;101329.15;;;2.15;59.81
51926;BME280;37952;51.938;15.480;2023-02-28T10:09:58;101330.53;;;2.21;59.53
51926;BME280;37952;51.938;15.480;2023-02-28T10:13:07;101329.33;;;2.20;59.71
51926;BME280;37952;51.938;15.480;2023-02-28T10:16:29;101325.15;;;2.19;58.87
51926;BME280;37952;51.938;15.480;2023-02-28T10:19:42;101326.02;;;2.18;58.88
51926;BME280;37952;51.938;15.480;2023-02-28T10:26:05;101319.57;;;2.29;58.99
51926;BME280;37952;51.938;15.480;2023-02-28T10:29:13;101318.86;;;2.35;59.23
51926;BME280;37952;51.938;15.480;2023-02-28T10:32:19;101323.20;;;2.43;59.49
51926;BME280;37952;51.938;15.480;2023-02-28T10:35:25;101320.92;;;2.51;58.70
51926;BME280;37952;51.938;15.480;2023-02-28T10:38:37;101319.86;;;2.60;59.12
51926;BME280;37952;51.938;15.480;2023-02-28T10:41:43;101317.77;;;2.66;59.05
51926;BME280;37952;51.938;15.480;2023-02-28T10:44:46;101315.84;;;2.72;59.05
51926;BME280;37952;51.938;15.480;2023-02-28T10:47:54;101307.46;;;2.78;59.05
51926;BME280;37952;51.938;15.480;2023-02-28T10:51:02;101306.03;;;2.88;59.24
51926;BME280;37952;51.938;15.480;2023-02-28T10:54:16;101314.86;;;3.02;59.15
51926;BME280;37952;51.938;15.480;2023-02-28T10:57:22;101312.21;;;3.12;58.81
51926;BME280;37952;51.938;15.480;2023-02-28T11:00:35;101316.69;;;3.21;58.88
51926;BME280;37952;51.938;15.480;2023-02-28T11:03:38;101315.96;;;3.29;58.76
51926;BME280;37952;51.938;15.480;2023-02-28T11:06:42;101315.77;;;3.34;58.40
51926;BME280;37952;51.938;15.480;2023-02-28T11:09:48;101315.73;;;3.37;58.27
51926;BME280;37952;51.938;15.480;2023-02-28T11:12:56;101312.25;;;3.37;57.90
51926;BME280;37952;51.938;15.480;2023-02-28T11:16:05;101313.79;;;3.43;58.27
51926;BME280;37952;51.938;15.480;2023-02-28T11:19:19;101311.50;;;3.47;58.26
51926;BME280;37952;51.938;15.480;2023-02-28T11:22:28;101302.77;;;3.49;58.15
51926;BME280;37952;51.938;15.480;2023-02-28T11:25:35;101309.20;;;3.53;57.57
51926;BME280;37952;51.938;15.480;2023-02-28T11:28:41;101309.68;;;3.59;57.59
51926;BME280;37952;51.938;15.480;2023-02-28T11:32:01;101307.02;;;3.64;57.50
51926;BME280;37952;51.938;15.480;2023-02-28T11:35:21;101302.48;;;3.67;57.58
51926;BME280;37952;51.938;15.480;2023-02-28T11:38:26;101301.07;;;3.69;57.39
51926;BME280;37952;51.938;15.480;2023-02-28T11:41:53;101298.44;;;3.72;57.40
51926;BME280;37952;51.938;15.480;2023-02-28T11:55:32;101281.27;;;4.03;56.27
51926;BME280;37952;51.938;15.480;2023-02-28T11:58:40;101275.45;;;4.09;56.73
51926;BME280;37952;51.938;15.480;2023-02-28T12:02:08;101271.46;;;4.07;55.62
51926;BME280;37952;51.938;15.480;2023-02-28T12:05:26;101266.38;;;4.10;56.27
51926;BME280;37952;51.938;15.480;2023-02-28T12:16:00;101265.96;;;4.34;55.41
51926;BME280;37952;51.938;15.480;2023-02-28T12:19:20;101262.13;;;4.51;55.79
51926;BME280;37952;51.938;15.480;2023-02-28T12:22:31;101260.03;;;4.66;55.95
51926;BME280;37952;51.938;15.480;2023-02-28T12:25:57;101254.77;;;4.81;55.80
51926;BME280;37952;51.938;15.480;2023-02-28T12:29:12;101249.36;;;4.95;55.78
51926;BME280;37952;51.938;15.480;2023-02-28T12:35:37;101245.58;;;5.03;54.63
51926;BME280;37952;51.938;15.480;2023-02-28T12:38:45;101239.50;;;5.14;54.13
51926;BME280;37952;51.938;15.480;2023-02-28T12:41:58;101233.27;;;5.22;54.04
51926;BME280;37952;51.938;15.480;2023-02-28T12:45:12;101230.47;;;5.34;54.40
51926;BME280;37952;51.938;15.480;2023-02-28T12:48:32;101223.44;;;5.48;54.19
51926;BME280;37952;51.938;15.480;2023-02-28T12:51:36;101220.89;;;5.65;54.68
51926;BME280;37952;51.938;15.480;2023-02-28T12:55:17;101216.45;;;5.80;53.63
51926;BME280;37952;51.938;15.480;2023-02-28T12:58:34;101209.23;;;5.93;52.14
51926;BME280;37952;51.938;15.480;2023-02-28T13:04:57;101202.82;;;6.29;53.91
51926;BME280;37952;51.938;15.480;2023-02-28T13:11:50;101196.11;;;6.67;53.68
51926;BME280;37952;51.938;15.480;2023-02-28T13:18:45;101196.75;;;6.93;52.81
51926;BME280;37952;51.938;15.480;2023-02-28T13:21:50;101199.72;;;7.10;52.84
51926;BME280;37952;51.938;15.480;2023-02-28T13:24:57;101197.23;;;7.20;52.58
51926;BME280;37952;51.938;15.480;2023-02-28T13:28:02;101199.42;;;7.31;53.17
51926;BME280;37952;51.938;15.480;2023-02-28T13:31:08;101200.30;;;7.45;52.88
51926;BME280;37952;51.938;15.480;2023-02-28T13:34:15;101196.61;;;7.60;52.75
51926;BME280;37952;51.938;15.480;2023-02-28T13:40:33;101201.42;;;7.85;51.67
51926;BME280;37952;51.938;15.480;2023-02-28T13:47:19;101196.88;;;7.98;50.95
51926;BME280;37952;51.938;15.480;2023-02-28T13:50:32;101195.14;;;8.04;51.34
51926;BME280;37952;51.938;15.480;2023-02-28T13:53:55;101190.13;;;8.14;50.74
51926;BME280;37952;51.938;15.480;2023-02-28T13:57:35;101188.16;;;8.22;51.15
51926;BME280;37952;51.938;15.480;2023-02-28T14:01:03;101186.92;;;8.28;51.19
51926;BME280;37952;51.938;15.480;2023-02-28T14:07:45;101180.17;;;8.37;50.89
51926;BME280;37952;51.938;15.480;2023-02-28T14:11:05;101178.27;;;8.42;50.72
51926;BME280;37952;51.938;15.480;2023-02-28T14:14:09;101175.70;;;8.46;50.25
51926;BME280;37952;51.938;15.480;2023-02-28T14:17:33;101176.39;;;8.47;49.83
51926;BME280;37952;51.938;15.480;2023-02-28T14:20:36;101175.61;;;8.43;48.11
51926;BME280;37952;51.938;15.480;2023-02-28T14:27:04;101178.83;;;8.41;49.66
51926;BME280;37952;51.938;15.480;2023-02-28T14:30:27;101173.85;;;8.43;49.06
51926;BME280;37952;51.938;15.480;2023-02-28T14:37:00;101162.32;;;8.35;47.32
51926;BME280;37952;51.938;15.480;2023-02-28T14:40:13;101162.13;;;8.29;48.99
51926;BME280;37952;51.938;15.480;2023-02-28T14:43:23;101161.86;;;8.33;48.98
51926;BME280;37952;51.938;15.480;2023-02-28T14:46:38;101159.80;;;8.31;49.00
51926;BME280;37952;51.938;15.480;2023-02-28T14:49:44;101166.30;;;8.30;48.78
51926;BME280;37952;51.938;15.480;2023-02-28T14:52:53;101159.58;;;8.20;47.59
51926;BME280;37952;51.938;15.480;2023-02-28T14:55:57;101156.52;;;8.16;47.98
51926;BME280;37952;51.938;15.480;2023-02-28T14:59:35;101159.58;;;8.14;47.81
51926;BME280;37952;51.938;15.480;2023-02-28T15:02:44;101162.09;;;8.11;48.40
51926;BME280;37952;51.938;15.480;2023-02-28T15:06:01;101162.27;;;8.11;47.47
51926;BME280;37952;51.938;15.480;2023-02-28T15:09:16;101160.67;;;7.99;47.35
51926;BME280;37952;51.938;15.480;2023-02-28T15:12:20;101162.08;;;7.99;47.53
51926;BME280;37952;51.938;15.480;2023-02-28T15:19:21;101159.14;;;7.97;46.51
51926;BME280;37952;51.938;15.480;2023-02-28T15:22:34;101158.70;;;7.87;46.88
51926;BME280;37952;51.938;15.480;2023-02-28T15:25:39;101157.15;;;7.79;47.10
51926;BME280;37952;51.938;15.480;2023-02-28T15:28:43;101157.02;;;7.78;48.07
51926;BME280;37952;51.938;15.480;2023-02-28T15:32:07;101151.60;;;7.84;47.90
51926;BME280;37952;51.938;15.480;2023-02-28T15:38:29;101139.27;;;7.86;48.15
51926;BME280;37952;51.938;15.480;2023-02-28T15:41:37;101135.55;;;7.87;47.75
51926;BME280;37952;51.938;15.480;2023-02-28T15:44:43;101133.46;;;7.86;48.06
51926;BME280;37952;51.938;15.480;2023-02-28T15:52:45;101138.27;;;7.57;47.39
51926;BME280;37952;51.938;15.480;2023-02-28T15:55:59;101124.30;;;7.33;47.72
51926;BME280;37952;51.938;15.480;2023-02-28T15:59:06;101135.81;;;7.20;48.05
51926;BME280;37952;51.938;15.480;2023-02-28T16:02:14;101143.09;;;7.09;47.71
51926;BME280;37952;51.938;15.480;2023-02-28T16:08:36;101144.44;;;6.82;48.01
51926;BME280;37952;51.938;15.480;2023-02-28T16:11:43;101141.55;;;6.62;47.73
51926;BME280;37952;51.938;15.480;2023-02-28T16:14:47;101142.48;;;6.42;48.01
51926;BME280;37952;51.938;15.480;2023-02-28T16:17:53;101142.33;;;6.24;48.36
51926;BME280;37952;51.938;15.480;2023-02-28T16:20:56;101144.50;;;6.11;48.51
51926;BME280;37952;51.938;15.480;2023-02-28T16:23:59;101145.61;;;5.97;48.60
51926;BME280;37952;51.938;15.480;2023-02-28T16:27:03;101141.11;;;5.85;48.56
51926;BME280;37952;51.938;15.480;2023-02-28T16:30:07;101147.30;;;5.71;48.60
51926;BME280;37952;51.938;15.480;2023-02-28T16:33:25;101152.50;;;5.54;48.48
51926;BME280;37952;51.938;15.480;2023-02-28T16:36:29;101155.38;;;5.39;48.76
51926;BME280;37952;51.938;15.480;2023-02-28T16:39:32;101156.61;;;5.28;48.93
51926;BME280;37952;51.938;15.480;2023-02-28T16:42:37;101157.77;;;5.20;49.08
51926;BME280;37952;51.938;15.480;2023-02-28T16:45:40;101158.23;;;5.13;49.20
51926;BME280;37952;51.938;15.480;2023-02-28T16:48:44;101158.91;;;5.03;48.98
51926;BME280;37952;51.938;15.480;2023-02-28T16:51:47;101159.23;;;4.93;49.30
51926;BME280;37952;51.938;15.480;2023-02-28T16:58:36;101162.05;;;4.78;49.51
51926;BME280;37952;51.938;15.480;2023-02-28T17:01:39;101168.30;;;4.69;49.54
51926;BME280;37952;51.938;15.480;2023-02-28T17:04:42;101175.73;;;4.61;49.52
51926;BME280;37952;51.938;15.480;2023-02-28T17:07:46;101179.46;;;4.56;49.76
51926;BME280;37952;51.938;15.480;2023-02-28T17:14:59;101181.05;;;4.40;49.83
51926;BME280;37952;51.938;15.480;2023-02-28T17:18:03;101182.83;;;4.38;50.12
51926;BME280;37952;51.938;15.480;2023-02-28T17:21:13;101184.80;;;4.34;50.05
51926;BME280;37952;51.938;15.480;2023-02-28T17:24:16;101183.15;;;4.25;50.00
51926;BME280;37952;51.938;15.480;2023-02-28T17:27:37;101184.11;;;4.17;50.18
51926;BME280;37952;51.938;15.480;2023-02-28T17:30:40;101180.16;;;4.11;50.31
51926;BME280;37952;51.938;15.480;2023-02-28T17:33:49;101180.91;;;4.06;50.50
51926;BME280;37952;51.938;15.480;2023-02-28T17:36:52;101181.11;;;4.04;50.48
51926;BME280;37952;51.938;15.480;2023-02-28T17:39:55;101179.95;;;3.97;50.57
51926;BME280;37952;51.938;15.480;2023-02-28T17:43:33;101186.11;;;3.91;50.74
51926;BME280;37952;51.938;15.480;2023-02-28T17:46:36;101187.70;;;3.89;50.85
51926;BME280;37952;51.938;15.480;2023-02-28T17:49:40;101184.79;;;3.84;50.96
51926;BME280;37952;51.938;15.480;2023-02-28T17:52:44;101186.05;;;3.81;50.91
51926;BME280;37952;51.938;15.480;2023-02-28T17:55:47;101186.77;;;3.78;51.06
51926;BME280;37952;51.938;15.480;2023-02-28T17:58:52;101188.73;;;3.73;51.12
51926;BME280;37952;51.938;15.480;2023-02-28T18:01:55;101185.45;;;3.69;51.29
51926;BME280;37952;51.938;15.480;2023-02-28T18:04:58;101183.05;;;3.65;51.16
51926;BME280;37952;51.938;15.480;2023-02-28T18:08:02;101183.95;;;3.60;51.39
51926;BME280;37952;51.938;15.480;2023-02-28T18:11:05;101178.61;;;3.55;51.50
51926;BME280;37952;51.938;15.480;2023-02-28T18:18:24;101177.52;;;3.38;51.57
51926;BME280;37952;51.938;15.480;2023-02-28T18:25:12;101181.27;;;3.26;52.08
51926;BME280;37952;51.938;15.480;2023-02-28T18:28:19;101182.65;;;3.29;52.16
51926;BME280;37952;51.938;15.480;2023-02-28T18:31:22;101185.27;;;3.26;52.18
51926;BME280;37952;51.938;15.480;2023-02-28T18:34:26;101186.52;;;3.21;52.24
51926;BME280;37952;51.938;15.480;2023-02-28T18:42:42;101186.27;;;3.10;52.62
51926;BME280;37952;51.938;15.480;2023-02-28T18:45:45;101184.52;;;3.08;52.68
51926;BME280;37952;51.938;15.480;2023-02-28T18:53:59;101183.71;;;3.01;53.01
51926;BME280;37952;51.938;15.480;2023-02-28T18:57:02;101184.05;;;3.00;53.13
51926;BME280;37952;51.938;15.480;2023-02-28T19:05:26;101184.06;;;3.00;53.21
51926;BME280;37952;51.938;15.480;2023-02-28T19:08:32;101187.54;;;3.00;53.34
51926;BME280;37952;51.938;15.480;2023-02-28T19:11:35;101187.53;;;3.01;53.39
51926;BME280;37952;51.938;15.480;2023-02-28T19:19:14;101186.33;;;2.98;53.54
51926;BME280;37952;51.938;15.480;2023-02-28T19:22:18;101185.13;;;2.97;53.57
51926;BME280;37952;51.938;15.480;2023-02-28T19:30:18;101190.59;;;2.83;53.85
51926;BME280;37952;51.938;15.480;2023-02-28T19:33:22;101191.30;;;2.79;53.78
51926;BME280;37952;51.938;15.480;2023-02-28T19:36:25;101192.90;;;2.73;53.86
51926;BME280;37952;51.938;15.480;2023-02-28T19:39:29;101190.48;;;2.68;54.04
51926;BME280;37952;51.938;15.480;2023-02-28T19:42:42;101188.95;;;2.63;54.09
51926;BME280;37952;51.938;15.480;2023-02-28T19:46:17;101192.63;;;2.61;54.26
51926;BME280;37952;51.938;15.480;2023-02-28T19:49:22;101191.41;;;2.56;54.44
51926;BME280;37952;51.938;15.480;2023-02-28T19:52:27;101191.42;;;2.53;54.54
51926;BME280;37952;51.938;15.480;2023-02-28T19:55:42;101199.79;;;2.51;54.59
51926;BME280;37952;51.938;15.480;2023-02-28T19:58:45;101195.96;;;2.48;54.68
51926;BME280;37952;51.938;15.480;2023-02-28T20:01:48;101188.85;;;2.45;54.82
51926;BME280;37952;51.938;15.480;2023-02-28T20:04:51;101189.36;;;2.45;54.97
51926;BME280;37952;51.938;15.480;2023-02-28T20:07:55;101191.29;;;2.43;54.97
51926;BME280;37952;51.938;15.480;2023-02-28T20:11:04;101185.57;;;2.39;55.05
51926;BME280;37952;51.938;15.480;2023-02-28T20:14:07;101181.39;;;2.38;55.21